Time;durP1;ratioP1;P1;durP2;ratioP2;P2;SDS_P1;SDS_P2;PMS_P1;PMS_P2;Temp;Humidity;BMP_temperature;BMP_pressure;BME280_temperature;BME280_humidity;BME280_pressure;Samples;Min_cycle;Max_cycle;Signal;HPM_P1;HPM_P2
2022/02/01 00:01:38;;;;;;;12.63;1.45;;;;;;;4.47;77.09;102311.09;5045616;28;20330;-78
2022/02/01 00:04:06;;;;;;;8.57;1.50;;;;;;;4.48;77.28;102324.06;5047358;28;20084;-78
2022/02/01 00:19:34;;;;;;;3.97;0.85;;;;;;;4.52;77.74;102292.09;5039396;28;20052;-78
2022/02/01 00:35:42;;;;;;;4.35;0.93;;;;;;;4.58;78.29;102327.59;5049092;28;20243;-79
2022/02/01 00:38:35;;;;;;;2.67;0.80;;;;;;;4.62;78.08;102313.81;5078869;28;20060;-79
2022/02/01 00:41:05;;;;;;;4.35;1.00;;;;;;;4.63;78.38;102323.31;5074834;28;20044;-79
2022/02/01 00:43:31;;;;;;;4.00;0.73;;;;;;;4.65;78.43;102349.28;5067116;28;20280;-79
2022/02/01 00:46:00;;;;;;;3.75;1.00;;;;;;;4.65;78.52;102338.91;5041307;28;20040;-79
2022/02/01 00:58:45;;;;;;;14.23;1.40;;;;;;;4.58;78.14;102239.38;5064747;28;20039;-78
2022/02/01 01:01:11;;;;;;;13.70;1.92;;;;;;;4.57;78.14;102253.22;5091404;28;20036;-78
2022/02/01 01:03:37;;;;;;;10.57;1.77;;;;;;;4.57;78.27;102267.06;5078016;28;20313;-78
2022/02/01 01:06:03;;;;;;;8.20;1.92;;;;;;;4.57;78.06;102274.84;5069563;28;20131;-78
2022/02/01 01:08:29;;;;;;;7.47;1.00;;;;;;;4.57;78.14;102274.84;5041283;28;20029;-78
2022/02/01 01:10:55;;;;;;;10.65;1.73;;;;;;;4.55;78.12;102278.28;5058340;28;20074;-79
2022/02/01 01:16:02;;;;;;;5.70;1.15;;;;;;;4.59;78.26;102285.25;5040819;28;20033;-79
2022/02/01 01:53:45;;;;;;;8.55;1.65;;;;;;;4.57;78.16;102295.59;5077802;28;20048;-78
2022/02/01 01:56:11;;;;;;;6.68;1.40;;;;;;;4.60;78.34;102306.00;5059352;28;20197;-78
2022/02/01 01:58:36;;;;;;;11.43;1.40;;;;;;;4.59;78.13;102298.22;5066944;28;20024;-78
2022/02/01 02:04:24;;;;;;;9.38;1.55;;;;;;;4.60;78.44;102286.97;5057599;28;20063;-78
2022/02/01 02:06:49;;;;;;;11.15;1.92;;;;;;;4.57;78.65;102271.38;5039336;28;20060;-78
2022/02/01 02:09:15;;;;;;;8.63;1.58;;;;;;;4.54;78.87;102272.22;5058151;28;20033;-78
2022/02/01 02:11:51;;;;;;;10.45;1.35;;;;;;;4.54;78.88;102267.03;5052578;28;20340;-78
2022/02/01 02:14:18;;;;;;;10.65;1.73;;;;;;;4.53;79.08;102278.28;5059627;28;20051;-78
2022/02/01 02:16:56;;;;;;;8.13;1.35;;;;;;;4.53;79.01;102279.97;5049092;28;20279;-78
2022/02/01 02:19:24;;;;;;;6.28;1.35;;;;;;;4.51;79.11;102282.59;5069650;28;20043;-78
2022/02/01 02:21:52;;;;;;;5.28;1.00;;;;;;;4.54;79.38;102280.00;5069604;28;20029;-78
2022/02/01 02:24:18;;;;;;;6.53;1.20;;;;;;;4.57;79.52;102281.78;5040545;28;20057;-78
2022/02/01 02:26:45;;;;;;;7.85;1.42;;;;;;;4.61;79.70;102260.16;5073885;28;20070;-78
2022/02/01 02:29:11;;;;;;;5.55;1.30;;;;;;;4.63;79.70;102263.63;5060629;28;20029;-78
2022/02/01 02:31:38;;;;;;;3.17;0.90;;;;;;;4.66;79.96;102252.41;5063411;28;20032;-78
2022/02/01 02:34:12;;;;;;;5.97;1.08;;;;;;;4.69;80.06;102247.22;5067243;28;20037;-78
2022/02/01 02:36:44;;;;;;;5.28;1.08;;;;;;;4.71;80.02;102245.50;5050425;28;20059;-78
2022/02/01 02:39:34;;;;;;;6.63;1.45;;;;;;;4.73;80.20;102243.78;5060814;28;20037;-78
2022/02/01 02:42:24;;;;;;;7.13;1.20;;;;;;;4.76;80.61;102244.69;5045399;28;20340;-78
2022/02/01 02:45:09;;;;;;;6.05;1.65;;;;;;;4.73;80.19;102236.00;5072203;28;20115;-78
2022/02/01 02:47:34;;;;;;;8.13;1.52;;;;;;;4.69;79.86;102253.28;5065813;28;20040;-78
2022/02/01 02:50:00;;;;;;;10.93;1.70;;;;;;;4.67;80.00;102243.75;5072275;28;20040;-78
2022/02/01 02:52:26;;;;;;;6.68;1.70;;;;;;;4.63;80.03;102245.47;5042652;28;20083;-78
2022/02/01 02:54:53;;;;;;;7.55;1.98;;;;;;;4.58;80.33;102234.19;5073979;28;20072;-78
2022/02/01 02:57:18;;;;;;;7.30;1.77;;;;;;;4.57;80.46;102232.47;5046029;28;20071;-78
2022/02/01 02:59:44;;;;;;;14.65;2.08;;;;;;;4.56;80.56;102239.38;5079447;28;20036;-78
2022/02/01 03:02:09;;;;;;;6.15;1.70;;;;;;;4.58;80.66;102229.88;5061884;28;20043;-78
2022/02/01 03:04:36;;;;;;;12.10;1.95;;;;;;;4.58;80.69;102214.31;5080384;28;20028;-78
2022/02/01 03:07:03;;;;;;;9.93;1.45;;;;;;;4.60;80.66;102197.03;5045190;28;20047;-78
2022/02/01 03:09:31;;;;;;;9.77;1.75;;;;;;;4.58;80.72;102193.56;5062094;28;20029;-78
2022/02/01 03:12:01;;;;;;;8.35;1.67;;;;;;;4.58;80.69;102180.59;5032709;28;20036;-78
2022/02/01 03:17:29;;;;;;;14.27;2.67;;;;;;;4.61;81.03;102171.94;5077704;28;20060;-78
2022/02/01 03:19:56;;;;;;;6.57;1.50;;;;;;;4.60;81.25;102163.28;5042160;28;20048;-78
2022/02/01 03:22:31;;;;;;;7.90;1.77;;;;;;;4.62;81.23;102145.16;5060375;28;20063;-78
2022/02/01 03:24:59;;;;;;;11.15;2.75;;;;;;;4.64;81.45;102139.94;5061008;28;20265;-78
2022/02/01 03:27:25;;;;;;;6.65;1.40;;;;;;;4.64;81.75;102138.22;5060894;28;20466;-78
2022/02/01 03:29:51;;;;;;;7.38;1.50;;;;;;;4.67;81.66;102145.16;5079047;28;20076;-78
2022/02/01 03:32:19;;;;;;;9.20;1.80;;;;;;;4.68;81.62;102136.53;5071522;28;20386;-78
2022/02/01 03:34:45;;;;;;;6.60;2.00;;;;;;;4.68;81.60;102131.34;5100661;28;20031;-78
2022/02/01 03:37:10;;;;;;;8.25;1.83;;;;;;;4.69;81.49;102133.91;5070589;28;20042;-78
2022/02/01 03:39:36;;;;;;;8.63;1.65;;;;;;;4.68;81.17;102137.38;5061910;28;20032;-78
2022/02/01 03:42:01;;;;;;;11.23;1.80;;;;;;;4.65;81.20;102137.34;5079691;28;20048;-78
2022/02/01 03:44:28;;;;;;;13.90;2.22;;;;;;;4.64;81.28;102135.63;5062088;28;20040;-78
2022/02/01 03:47:02;;;;;;;19.60;3.15;;;;;;;4.63;81.32;102143.41;5061380;28;20036;-78
2022/02/01 03:49:34;;;;;;;15.77;3.40;;;;;;;4.63;81.31;102146.88;5059484;28;20040;-78
2022/02/01 03:52:00;;;;;;;7.43;1.58;;;;;;;4.63;81.35;102135.63;5081269;28;20020;-78
2022/02/01 03:54:27;;;;;;;7.20;1.65;;;;;;;4.63;81.17;102133.88;5082217;28;20023;-78
2022/02/01 03:56:53;;;;;;;8.23;1.95;;;;;;;4.61;81.21;102140.81;5082191;28;20274;-78
2022/02/01 03:59:20;;;;;;;4.47;1.50;;;;;;;4.61;81.24;102130.41;5081709;28;20020;-78
2022/02/01 04:01:45;;;;;;;8.38;1.83;;;;;;;4.61;81.46;102130.41;5082026;28;20306;-78
2022/02/01 04:04:13;;;;;;;10.70;2.67;;;;;;;4.61;81.69;102128.69;5081139;28;20102;-78
2022/02/01 04:06:39;;;;;;;11.57;2.55;;;;;;;4.62;82.17;102121.78;5082247;28;20039;-78
2022/02/01 04:09:04;;;;;;;13.70;2.25;;;;;;;4.64;82.38;102127.84;5081347;28;20035;-78
2022/02/01 04:11:30;;;;;;;6.18;2.03;;;;;;;4.65;83.41;102121.78;5081407;28;20051;-78
2022/02/01 04:13:55;;;;;;;10.77;2.10;;;;;;;4.67;84.00;102114.88;5081085;28;20235;-78
2022/02/01 04:16:20;;;;;;;14.90;3.05;;;;;;;4.69;84.81;102104.50;5081273;28;20239;-78
2022/02/01 04:18:46;;;;;;;14.20;3.15;;;;;;;4.71;85.25;102085.50;5081390;28;20032;-78
2022/02/01 04:21:11;;;;;;;19.63;3.50;;;;;;;4.74;86.33;102089.81;5080841;28;20040;-78
2022/02/01 04:23:37;;;;;;;13.05;2.90;;;;;;;4.74;86.31;102084.63;5081301;28;20031;-78
2022/02/01 04:26:02;;;;;;;11.90;3.08;;;;;;;4.78;86.46;102097.63;5086598;28;20109;-78
2022/02/01 04:28:27;;;;;;;15.93;3.38;;;;;;;4.80;86.86;102106.28;5079173;28;20044;-78
2022/02/01 04:30:53;;;;;;;17.52;3.55;;;;;;;4.81;87.66;102092.44;5078590;28;20229;-78
2022/02/01 04:33:18;;;;;;;22.90;3.58;;;;;;;4.84;87.93;102082.91;5078737;28;20098;-78
2022/02/01 04:35:44;;;;;;;28.38;3.50;;;;;;;4.84;88.08;102080.31;5044015;28;20276;-78
2022/02/01 04:38:09;;;;;;;17.15;3.95;;;;;;;4.86;88.57;102079.47;5077118;28;20236;-78
2022/02/01 04:40:34;;;;;;;13.93;4.05;;;;;;;4.87;88.95;102076.00;5051717;28;20107;-78
2022/02/01 04:43:02;;;;;;;15.30;4.45;;;;;;;4.90;88.81;102067.38;5030013;28;20035;-78
2022/02/01 04:45:28;;;;;;;12.57;3.33;;;;;;;4.90;88.90;102069.97;5058462;28;20056;-78
2022/02/01 04:47:54;;;;;;;15.52;3.88;;;;;;;4.92;88.92;102065.66;5051082;28;20350;-78
2022/02/01 04:50:28;;;;;;;20.15;4.93;;;;;;;4.93;88.93;102059.56;5057826;28;20108;-78
2022/02/01 04:52:55;;;;;;;19.27;4.22;;;;;;;4.94;88.99;102058.72;5050573;28;20084;-78
2022/02/01 04:55:23;;;;;;;13.38;3.42;;;;;;;4.96;88.78;102050.06;5040505;28;20080;-78
2022/02/01 04:57:58;;;;;;;22.57;3.97;;;;;;;4.95;88.93;102035.38;5046944;28;20027;-78
2022/02/01 05:00:29;;;;;;;14.55;4.13;;;;;;;4.97;88.96;102041.44;5058794;28;20059;-78
2022/02/01 05:02:57;;;;;;;19.55;4.13;;;;;;;4.99;88.83;102018.94;5059583;28;20037;-78
2022/02/01 05:05:28;;;;;;;13.63;3.28;;;;;;;5.02;88.90;102014.59;5040649;28;20087;-78
2022/02/01 05:08:00;;;;;;;15.60;3.53;;;;;;;5.02;89.18;102009.41;5044032;28;20346;-78
2022/02/01 05:10:28;;;;;;;13.20;4.00;;;;;;;5.02;89.14;102006.81;5076694;28;20100;-78
2022/02/01 05:12:55;;;;;;;16.10;3.95;;;;;;;5.04;89.22;102002.47;5058032;28;20344;-78
2022/02/01 05:15:20;;;;;;;19.10;4.00;;;;;;;5.03;89.29;101992.97;5042168;28;20052;-79
2022/02/01 05:17:53;;;;;;;11.38;3.40;;;;;;;5.04;89.60;101979.09;5066861;28;20048;-79
2022/02/01 05:20:41;;;;;;;12.32;3.00;;;;;;;5.07;88.95;101979.97;5052851;28;20033;-79
2022/02/01 05:23:04;;;;;;;12.02;2.90;;;;;;;5.09;89.12;101967.84;5053253;28;20413;-78
2022/02/01 05:25:30;;;;;;;13.55;3.28;;;;;;;5.11;89.24;101960.06;5041477;28;20032;-78
2022/02/01 05:27:58;;;;;;;11.65;3.67;;;;;;;5.12;89.60;101977.41;5058080;28;20057;-78
2022/02/01 05:30:24;;;;;;;19.83;4.80;;;;;;;5.14;89.64;101978.25;5074503;28;20040;-79
2022/02/01 05:32:50;;;;;;;15.15;3.30;;;;;;;5.15;90.36;101970.47;5054165;28;20474;-78
2022/02/01 05:35:15;;;;;;;15.75;4.18;;;;;;;5.15;90.56;101961.81;5076923;28;20070;-78
2022/02/01 05:37:41;;;;;;;10.63;3.53;;;;;;;5.17;90.59;101960.94;5058574;28;20099;-78
2022/02/01 05:40:08;;;;;;;14.07;4.18;;;;;;;5.16;91.51;101963.53;5057875;28;20411;-79
2022/02/01 05:45:17;;;;;;;18.13;4.82;;;;;;;5.16;91.98;101956.59;5085161;28;20066;-78
2022/02/01 05:47:43;;;;;;;17.92;4.55;;;;;;;5.17;92.51;101944.50;5087121;28;20044;-78
2022/02/01 05:50:08;;;;;;;15.30;5.30;;;;;;;5.19;92.93;101922.00;5077647;28;20033;-78
2022/02/01 05:52:34;;;;;;;18.50;5.45;;;;;;;5.18;93.09;101918.53;5060204;28;20036;-78
2022/02/01 05:54:59;;;;;;;15.70;5.32;;;;;;;5.22;93.17;101923.72;5059438;28;20036;-78
2022/02/01 05:57:26;;;;;;;12.95;4.72;;;;;;;5.21;93.65;101920.25;5077692;28;20036;-78
2022/02/01 05:59:52;;;;;;;16.75;5.13;;;;;;;5.23;93.37;101915.91;5058736;28;20032;-78
2022/02/01 06:02:18;;;;;;;12.38;4.97;;;;;;;5.26;93.71;101930.66;5101255;28;20111;-78
2022/02/01 06:04:44;;;;;;;16.95;5.65;;;;;;;5.27;93.85;101932.38;5102369;28;20047;-78
2022/02/01 06:07:09;;;;;;;12.73;4.57;;;;;;;5.29;93.84;101931.47;5061402;28;20032;-78
2022/02/01 06:09:34;;;;;;;17.40;4.82;;;;;;;5.31;93.83;101926.28;5047252;28;20078;-78
2022/02/01 06:12:00;;;;;;;15.50;4.45;;;;;;;5.31;93.87;101926.28;5063446;28;20079;-79
2022/02/01 06:14:25;;;;;;;14.00;4.30;;;;;;;5.32;94.01;101905.50;5053820;28;20033;-79
2022/02/01 06:16:51;;;;;;;14.85;4.50;;;;;;;5.35;93.84;101902.06;5043273;28;20182;-79
2022/02/01 06:19:16;;;;;;;17.65;5.00;;;;;;;5.36;94.08;101899.44;5045281;28;20293;-79
2022/02/01 06:21:41;;;;;;;17.10;4.80;;;;;;;5.38;94.11;101889.06;5079445;28;20282;-79
2022/02/01 06:24:08;;;;;;;15.63;6.05;;;;;;;5.39;94.33;101902.03;5080446;28;20051;-79
2022/02/01 06:26:34;;;;;;;14.23;5.25;;;;;;;5.40;94.26;101889.91;5043687;28;20215;-79
2022/02/01 06:28:59;;;;;;;18.33;5.63;;;;;;;5.39;94.50;101890.78;5060797;28;20056;-79
2022/02/01 06:31:25;;;;;;;24.20;5.28;;;;;;;5.41;94.77;101885.59;5054977;28;20122;-79
2022/02/01 06:33:50;;;;;;;15.00;4.60;;;;;;;5.42;94.74;101877.81;5081978;28;20052;-79
2022/02/01 06:36:15;;;;;;;19.50;4.20;;;;;;;5.43;94.83;101866.53;5063905;28;20111;-79
2022/02/01 06:38:41;;;;;;;17.45;4.55;;;;;;;5.44;94.83;101881.25;5029732;28;20021;-79
2022/02/01 06:41:06;;;;;;;15.52;3.97;;;;;;;5.46;95.13;101892.50;5061392;28;20027;-79
2022/02/01 06:43:32;;;;;;;17.67;4.72;;;;;;;5.46;95.18;101889.91;5082982;28;20095;-79
2022/02/01 06:46:01;;;;;;;16.98;3.95;;;;;;;5.47;95.42;101885.56;5079208;28;20036;-79
2022/02/01 06:48:26;;;;;;;14.13;3.83;;;;;;;5.49;95.21;101876.03;5063630;28;20320;-79
2022/02/01 06:50:52;;;;;;;12.48;3.38;;;;;;;5.49;95.42;101861.28;5055364;28;20091;-79
2022/02/01 06:53:20;;;;;;;15.07;4.60;;;;;;;5.51;95.25;101856.09;5080087;28;20352;-79
2022/02/01 06:55:58;;;;;;;9.15;3.22;;;;;;;5.53;95.45;101850.06;5080059;28;20055;-79
2022/02/01 06:58:23;;;;;;;18.70;4.15;;;;;;;5.53;95.77;101849.16;5082886;28;20239;-79
2022/02/01 07:00:48;;;;;;;17.98;4.05;;;;;;;5.54;95.89;101848.31;5088496;28;20082;-79
2022/02/01 07:03:14;;;;;;;16.05;3.67;;;;;;;5.54;96.19;101835.31;5056657;28;20075;-79
2022/02/01 07:05:39;;;;;;;8.10;2.58;;;;;;;5.55;96.43;101831.84;5045596;28;20324;-79
2022/02/01 07:08:05;;;;;;;11.48;3.47;;;;;;;5.56;96.54;101852.63;5074919;28;20064;-79
2022/02/01 07:10:31;;;;;;;11.00;3.28;;;;;;;5.56;96.60;101833.56;5087063;28;20044;-78
2022/02/01 07:12:57;;;;;;;6.53;2.58;;;;;;;5.58;96.53;101842.22;5083189;28;20258;-79
2022/02/01 07:15:22;;;;;;;6.57;3.33;;;;;;;5.57;96.97;101848.31;5074870;28;20023;-79
2022/02/01 07:17:50;;;;;;;6.78;2.88;;;;;;;5.56;97.28;101834.41;5070105;28;20197;-79
2022/02/01 07:20:17;;;;;;;10.98;2.97;;;;;;;5.61;97.21;101836.16;5065166;28;20320;-79
2022/02/01 07:22:44;;;;;;;11.13;3.15;;;;;;;5.61;97.49;101837.03;5062024;28;20272;-79
2022/02/01 07:25:46;;;;;;;6.18;2.35;;;;;;;5.62;97.57;101835.28;5059277;28;20028;-79
2022/02/01 07:28:04;;;;;;;7.68;2.00;;;;;;;5.64;97.48;101836.13;5073275;28;20025;-79
2022/02/01 07:30:30;;;;;;;6.78;2.10;;;;;;;5.66;97.68;101835.28;5066506;28;20048;-79
2022/02/01 07:32:58;;;;;;;5.78;2.13;;;;;;;5.66;97.70;101827.47;5056338;28;20378;-78
2022/02/01 07:35:25;;;;;;;6.97;2.20;;;;;;;5.67;97.95;101815.34;5040198;28;20135;-79
2022/02/01 07:37:52;;;;;;;5.28;2.20;;;;;;;5.68;97.64;101817.94;5037033;28;20252;-79
2022/02/01 07:40:17;;;;;;;5.70;2.25;;;;;;;5.68;97.88;101811.88;5036059;28;20033;-78
2022/02/01 07:42:43;;;;;;;3.65;2.53;;;;;;;5.69;97.72;101798.84;5056746;28;20036;-79
2022/02/01 07:45:11;;;;;;;2.03;1.83;;;;;;;5.71;97.94;101793.66;5038606;28;20229;-79
2022/02/01 07:47:36;;;;;;;5.75;3.00;;;;;;;5.71;98.26;101794.53;5054841;28;20108;-79
2022/02/01 07:50:04;;;;;;;5.82;2.45;;;;;;;5.73;98.30;101797.09;5030749;28;20079;-79
2022/02/01 07:52:29;;;;;;;6.80;2.80;;;;;;;5.76;98.19;101794.50;5032283;28;20288;-79
2022/02/01 07:54:55;;;;;;;6.13;2.33;;;;;;;5.75;98.27;101779.78;5053440;28;20059;-79
2022/02/01 07:57:20;;;;;;;6.22;2.63;;;;;;;5.76;98.41;101782.34;5051829;28;20411;-79
2022/02/01 07:59:45;;;;;;;10.82;2.83;;;;;;;5.77;98.41;101776.28;5049399;28;20104;-79
2022/02/01 08:02:19;;;;;;;8.65;3.20;;;;;;;5.79;98.35;101784.09;5022416;28;20281;-79
2022/02/01 08:04:45;;;;;;;10.10;3.10;;;;;;;5.81;98.14;101771.94;5033439;28;20045;-79
2022/02/01 08:07:11;;;;;;;6.32;2.80;;;;;;;5.83;98.37;101777.13;5032335;28;20049;-79
2022/02/01 08:09:40;;;;;;;7.35;2.60;;;;;;;5.83;98.65;101778.00;5034672;28;20033;-79
2022/02/01 08:12:15;;;;;;;11.13;3.22;;;;;;;5.85;98.45;101762.38;5033700;28;20043;-78
2022/02/01 08:17:30;;;;;;;11.52;3.80;;;;;;;5.89;98.57;101766.69;5046114;28;20044;-79
2022/02/01 08:20:08;;;;;;;13.70;3.22;;;;;;;5.92;98.45;101777.94;5018937;28;20055;-79
2022/02/01 08:25:13;;;;;;;10.85;2.92;;;;;;;5.94;98.70;101773.56;5037312;28;20040;-79
2022/02/01 08:27:39;;;;;;;10.73;2.83;;;;;;;5.94;98.76;101778.78;5051365;28;20111;-79
2022/02/01 08:30:10;;;;;;;11.18;3.20;;;;;;;5.95;98.81;101759.75;5028407;28;20355;-79
2022/02/01 08:32:37;;;;;;;13.75;2.92;;;;;;;5.98;98.83;101756.25;5068294;28;20202;-79
2022/02/01 08:35:04;;;;;;;6.03;2.53;;;;;;;5.95;99.04;101754.56;5052826;28;20032;-79
2022/02/01 08:37:30;;;;;;;4.57;2.83;;;;;;;5.99;99.03;101754.53;5052536;28;20042;-79
2022/02/01 08:39:56;;;;;;;10.48;2.83;;;;;;;5.98;99.19;101743.25;5054474;28;20055;-79
2022/02/01 08:42:21;;;;;;;8.63;2.45;;;;;;;5.99;99.26;101718.13;5068543;28;20327;-79
2022/02/01 08:44:47;;;;;;;12.18;2.78;;;;;;;5.99;99.21;101703.38;5072044;28;20037;-79
2022/02/01 08:47:14;;;;;;;5.38;2.42;;;;;;;6.00;99.23;101710.28;5022637;28;20033;-79
2022/02/01 08:49:41;;;;;;;9.32;3.00;;;;;;;6.01;99.21;101701.63;5074533;28;20376;-79
2022/02/01 08:52:11;;;;;;;5.82;2.38;;;;;;;6.02;99.21;101676.47;5070497;28;20108;-79
2022/02/01 08:54:38;;;;;;;7.50;2.85;;;;;;;6.02;99.41;101694.69;5037922;28;20237;-79
2022/02/01 08:57:24;;;;;;;14.35;2.80;;;;;;;6.03;99.27;101694.69;5049568;28;20032;-79
2022/02/01 08:59:56;;;;;;;9.02;2.80;;;;;;;6.03;99.36;101683.41;5058503;28;20037;-79
2022/02/01 09:02:23;;;;;;;7.90;2.47;;;;;;;6.04;99.35;101682.53;5072987;28;20040;-79
2022/02/01 09:04:49;;;;;;;5.70;2.47;;;;;;;6.05;99.44;101676.47;5070178;28;20316;-79
2022/02/01 09:07:14;;;;;;;8.80;2.95;;;;;;;6.04;99.29;101669.53;5071952;28;20074;-79
2022/02/01 09:09:40;;;;;;;10.35;3.25;;;;;;;6.07;99.34;101687.72;5022499;28;20281;-79
2022/02/01 09:12:06;;;;;;;7.10;2.75;;;;;;;6.08;99.41;101679.06;5054762;28;20357;-79
2022/02/01 09:14:32;;;;;;;5.80;3.08;;;;;;;6.08;99.48;101679.06;5050448;28;20047;-79
2022/02/01 09:17:00;;;;;;;10.57;3.22;;;;;;;6.10;99.44;101675.56;5040533;28;20024;-79
2022/02/01 09:19:26;;;;;;;9.03;2.83;;;;;;;6.10;99.48;101662.53;5050092;28;20044;-79
2022/02/01 09:21:52;;;;;;;9.55;3.50;;;;;;;6.11;99.50;101647.78;5054694;28;20326;-79
2022/02/01 09:24:17;;;;;;;12.18;3.40;;;;;;;6.10;99.84;101638.28;5070848;28;20036;-79
2022/02/01 09:26:43;;;;;;;8.50;3.60;;;;;;;6.12;99.99;101600.13;5033243;28;20108;-79
2022/02/01 09:29:09;;;;;;;10.38;3.53;;;;;;;6.13;99.75;101594.91;5050412;28;20355;-79
2022/02/01 09:31:34;;;;;;;13.20;4.38;;;;;;;6.15;99.78;101606.16;5071127;28;20328;-79
2022/02/01 09:34:00;;;;;;;17.17;4.60;;;;;;;6.16;100.00;101612.22;5054055;28;20036;-79
2022/02/01 09:36:26;;;;;;;17.70;4.55;;;;;;;6.20;100.00;101613.03;5053512;28;20040;-79
2022/02/01 09:38:54;;;;;;;11.50;4.05;;;;;;;6.22;100.00;101603.47;5037816;28;20028;-79
2022/02/01 09:41:19;;;;;;;13.38;4.35;;;;;;;6.23;100.00;101602.63;5067571;28;20036;-79
2022/02/01 09:43:45;;;;;;;13.18;4.70;;;;;;;6.22;100.00;101582.66;5071979;28;20433;-79
2022/02/01 09:46:11;;;;;;;16.77;4.88;;;;;;;6.25;100.00;101606.06;5049743;28;20043;-79
2022/02/01 09:48:37;;;;;;;16.17;5.25;;;;;;;6.25;100.00;101583.50;5069049;28;20103;-79
2022/02/01 09:51:04;;;;;;;26.10;5.15;;;;;;;6.26;100.00;101600.84;5052605;28;20327;-79
2022/02/01 09:53:31;;;;;;;14.52;4.60;;;;;;;6.30;100.00;101591.28;5047491;28;20103;-79
2022/02/01 09:55:57;;;;;;;18.52;5.13;;;;;;;6.31;100.00;101580.84;5074169;28;20301;-79
2022/02/01 09:58:33;;;;;;;17.27;4.78;;;;;;;6.31;100.00;101569.56;5051525;28;20147;-79
2022/02/01 10:01:02;;;;;;;19.85;4.30;;;;;;;6.34;100.00;101573.00;5039196;28;20033;-79
2022/02/01 10:03:27;;;;;;;10.20;4.13;;;;;;;6.34;100.00;101572.13;5033525;28;20348;-79
2022/02/01 10:06:10;;;;;;;16.40;4.03;;;;;;;6.37;100.00;101571.22;5044370;28;20079;-79
2022/02/01 10:08:38;;;;;;;18.65;5.13;;;;;;;6.36;100.00;101570.38;5042664;28;20228;-79
2022/02/01 10:11:08;;;;;;;18.38;5.25;;;;;;;6.41;100.00;101578.13;5056107;28;20028;-79
2022/02/01 10:13:35;;;;;;;15.52;5.55;;;;;;;6.42;100.00;101590.25;5067425;28;20041;-79
2022/02/01 10:16:15;;;;;;;23.50;6.20;;;;;;;6.43;100.00;101585.03;5039503;28;20059;-79
2022/02/01 10:18:41;;;;;;;18.88;7.40;;;;;;;6.45;100.00;101580.66;5069456;28;20290;-78
2022/02/01 10:21:11;;;;;;;17.48;7.53;;;;;;;6.50;100.00;101591.91;5036866;28;20608;-79
2022/02/01 10:23:40;;;;;;;21.02;6.85;;;;;;;6.52;100.00;101579.72;5069944;28;20028;-79
2022/02/01 10:26:23;;;;;;;19.92;8.15;;;;;;;6.57;100.00;101579.69;5072159;28;20028;-79
2022/02/01 10:31:35;;;;;;;32.13;8.00;;;;;;;6.62;99.82;101590.91;5076503;28;20356;-79
2022/02/01 10:37:25;;;;;;;24.90;6.70;;;;;;;6.70;99.39;101560.41;5077070;28;20095;-79
2022/02/01 10:39:56;;;;;;;16.85;5.97;;;;;;;6.74;99.10;101571.66;5070092;28;20039;-79
2022/02/01 10:42:23;;;;;;;29.60;5.82;;;;;;;6.76;98.91;101584.66;5066351;28;20368;-79
2022/02/01 10:44:50;;;;;;;20.20;5.05;;;;;;;6.78;98.81;101575.94;5062524;28;20072;-79
2022/02/01 10:47:43;;;;;;;22.33;4.85;;;;;;;6.84;98.21;101569.78;5048725;28;20037;-79
2022/02/01 10:50:10;;;;;;;25.25;5.15;;;;;;;6.85;98.31;101566.31;5068347;28;20378;-79
2022/02/01 10:52:37;;;;;;;19.40;5.55;;;;;;;6.85;98.14;101563.69;5074071;28;20216;-79
2022/02/01 10:55:05;;;;;;;21.42;4.88;;;;;;;6.90;97.78;101583.59;5051271;28;21005;-79
2022/02/01 10:57:31;;;;;;;22.10;4.43;;;;;;;6.98;97.48;101590.44;5063856;28;20039;-79
2022/02/01 10:59:56;;;;;;;19.15;4.50;;;;;;;7.06;96.78;101579.03;5036426;28;20228;-79
2022/02/01 11:02:24;;;;;;;19.70;4.30;;;;;;;7.12;96.50;101567.66;5064368;28;20025;-79
2022/02/01 11:04:52;;;;;;;18.95;4.25;;;;;;;7.18;96.08;101569.31;5065055;28;20106;-79
2022/02/01 11:07:18;;;;;;;18.50;3.70;;;;;;;7.20;96.23;101563.19;5066995;28;20088;-79
2022/02/01 11:09:43;;;;;;;13.85;3.67;;;;;;;7.26;95.68;101563.09;5044032;28;20041;-79
2022/02/01 11:12:11;;;;;;;6.88;2.90;;;;;;;7.34;95.35;101580.38;5063909;28;20108;-79
2022/02/01 11:14:43;;;;;;;20.70;4.38;;;;;;;7.34;95.36;101575.16;5042639;28;20029;-79
2022/02/01 11:17:18;;;;;;;22.83;3.80;;;;;;;7.36;95.20;101582.06;5062914;28;20040;-79
2022/02/01 11:20:02;;;;;;;12.65;3.55;;;;;;;7.39;95.08;101562.91;5054175;28;20210;-79
2022/02/01 11:22:38;;;;;;;18.05;4.10;;;;;;;7.41;94.54;101553.34;5067697;28;20037;-79
2022/02/01 11:25:20;;;;;;;13.77;4.15;;;;;;;7.42;94.61;101573.28;5061519;28;20047;-79
2022/02/01 11:30:35;;;;;;;19.92;3.80;;;;;;;7.47;94.57;101569.72;5065321;28;20073;-79
2022/02/01 11:33:01;;;;;;;9.13;3.35;;;;;;;7.47;94.35;101572.31;5050112;28;20344;-79
2022/02/01 11:35:28;;;;;;;9.85;3.45;;;;;;;7.52;94.36;101569.66;5073125;28;20340;-79
2022/02/01 11:38:02;;;;;;;17.35;4.10;;;;;;;7.54;94.26;101544.41;5056688;28;20052;-79
2022/02/01 11:40:36;;;;;;;11.77;3.42;;;;;;;7.56;94.18;101542.63;5049084;28;20054;-79
2022/02/01 11:43:06;;;;;;;11.45;3.85;;;;;;;7.59;94.32;101513.06;5064107;28;20380;-79
2022/02/01 11:45:40;;;;;;;16.40;3.13;;;;;;;7.62;93.89;101510.38;5071168;28;20044;-79
2022/02/01 11:48:17;;;;;;;18.40;3.47;;;;;;;7.63;93.90;101502.53;5062380;28;20067;-79
2022/02/01 11:50:55;;;;;;;12.90;2.88;;;;;;;7.66;93.97;101502.50;5058073;28;20040;-79
2022/02/01 11:53:55;;;;;;;10.30;3.17;;;;;;;7.70;93.91;101492.88;5050467;28;20138;-79
2022/02/01 11:56:31;;;;;;;14.32;3.33;;;;;;;7.69;93.98;101485.94;5063234;28;20275;-79
2022/02/01 11:59:00;;;;;;;11.88;4.05;;;;;;;7.71;93.86;101485.91;5067503;28;20047;-79
2022/02/01 12:01:32;;;;;;;21.50;3.53;;;;;;;7.74;93.90;101507.56;5064852;28;20075;-79
2022/02/01 12:04:10;;;;;;;14.00;3.60;;;;;;;7.75;94.05;101504.09;5064314;28;20063;-79
2022/02/01 12:06:56;;;;;;;16.08;3.22;;;;;;;7.75;94.16;101513.63;5059537;28;20328;-79
2022/02/01 12:09:23;;;;;;;11.13;3.28;;;;;;;7.78;93.90;101497.94;5046023;28;20025;-79
2022/02/01 12:11:57;;;;;;;13.27;3.30;;;;;;;7.82;93.82;101529.16;5036786;28;20108;-79
2022/02/01 12:14:24;;;;;;;11.32;2.50;;;;;;;7.85;93.48;101500.41;5039924;28;20272;-79
2022/02/01 12:16:51;;;;;;;8.77;3.05;;;;;;;7.88;93.37;101495.13;5049826;28;20316;-79
2022/02/01 12:19:29;;;;;;;16.15;3.22;;;;;;;7.94;93.07;101481.13;5049496;28;20209;-79
2022/02/01 12:22:40;;;;;;;9.60;2.72;;;;;;;7.96;92.85;101475.88;5060404;28;20252;-79
2022/02/01 12:25:08;;;;;;;7.45;2.58;;;;;;;8.00;92.88;101482.75;5076007;28;20050;-79
2022/02/01 12:27:39;;;;;;;7.35;3.35;;;;;;;8.04;92.53;101487.88;5075549;28;20547;-79
2022/02/01 12:30:08;;;;;;;8.40;2.88;;;;;;;8.07;92.62;101471.28;5081290;28;20114;-79
2022/02/01 12:32:34;;;;;;;12.90;3.05;;;;;;;8.06;92.66;101464.38;5048080;28;20036;-79
2022/02/01 12:34:59;;;;;;;9.65;3.00;;;;;;;8.09;92.52;101459.06;5060101;28;20398;-79
2022/02/01 12:37:25;;;;;;;14.95;2.80;;;;;;;8.10;92.39;101479.06;5073809;28;20135;-79
2022/02/01 12:40:09;;;;;;;13.05;2.90;;;;;;;8.08;92.45;101463.44;5047035;28;20036;-79
2022/02/01 12:42:43;;;;;;;15.02;3.38;;;;;;;8.09;92.64;101456.47;5064594;28;20338;-79
2022/02/01 12:47:59;;;;;;;11.70;3.75;;;;;;;8.09;92.81;101453.84;5060606;28;20083;-79
2022/02/01 12:50:24;;;;;;;8.23;2.25;;;;;;;8.12;92.24;101437.31;5045721;28;20040;-79
2022/02/01 12:52:56;;;;;;;9.48;2.65;;;;;;;8.17;92.29;101438.91;5050903;28;20047;-79
2022/02/01 12:55:22;;;;;;;9.27;2.25;;;;;;;8.19;92.19;101429.31;5061048;28;20039;-79
2022/02/01 12:57:48;;;;;;;11.30;2.33;;;;;;;8.24;92.00;101435.28;5057192;28;20029;-79
2022/02/01 13:00:16;;;;;;;9.25;2.80;;;;;;;8.27;91.78;101436.97;5063306;28;20035;-79
2022/02/01 13:02:42;;;;;;;10.20;2.80;;;;;;;8.29;91.54;101447.38;5064832;28;20042;-79
2022/02/01 13:05:13;;;;;;;8.85;2.55;;;;;;;8.32;91.32;101422.06;5036608;28;20060;-79
2022/02/01 13:15:40;;;;;;;10.75;3.17;;;;;;;8.38;91.49;101398.44;5079182;28;20036;-79
2022/02/01 13:18:19;;;;;;;10.10;2.97;;;;;;;8.38;91.45;101418.47;5045251;28;20165;-79
2022/02/01 13:20:55;;;;;;;9.07;2.97;;;;;;;8.40;91.41;101414.94;5048532;28;20351;-79
2022/02/01 13:23:21;;;;;;;9.75;2.90;;;;;;;8.44;91.30;101405.28;5078524;28;20035;-79